Decoded Metar for OIAM (BANDAR MAHSHAHR in IRAN) (IATA:MRX) | Meteo·Mobile Aviation Weather
aviador You're here:

OIAM Decoded Metar

BANDAR MAHSHAHR in IRAN
Report Time2019-01-19 16:00:00
UTC Time2019-01-19 16:56:33
Flight Rules vfr VFR
Wind310° at 06 kt
W.Decomp.*RWY 31: 6.0 kt HW 0.3 kt LCW
W.Rank310° ranks 2
Current wind is below 310° avg. (10.9)
Visibility9999 m
Phenomena:N/A
Clouds:N/A
Expected CloudBase > 2,000 ft AGL from Temp-Dew spread
CeilingNone
Temp10°C (ISA -5)
Dew Point05°C (71% RH)
AAT6.7°C
QNH1022 hPa
Density Alt-768 ft
Elevation13 ft
Report Wrong Elevation
Raw Report
METAR OIAM 191600Z 31006KT CAVOK 10/05 Q1022=

Extra information for OIAM:More info

Metar Taf Metar & Taf Last 4 Metars F.Rules Stats Wind Profile Meteogram Temp Stats Airport Information Weather charts Add Link Nearby VenuesMetar ALERT Operation Metar Decoded Social comments